sensor_id;sensor_type;location;lat;lon;timestamp;temperature;humidity
56308;DHT22;42217;50.422;7.210;2023-08-20T00:00:52;19.50;99.90
56308;DHT22;42217;50.422;7.210;2023-08-20T00:03:18;19.20;99.90
56308;DHT22;42217;50.422;7.210;2023-08-20T00:05:44;19.00;99.90
56308;DHT22;42217;50.422;7.210;2023-08-20T00:08:10;18.70;99.90
56308;DHT22;42217;50.422;7.210;2023-08-20T00:10:36;18.60;99.90
56308;DHT22;42217;50.422;7.210;2023-08-20T00:13:02;18.50;99.90
56308;DHT22;42217;50.422;7.210;2023-08-20T00:15:27;18.70;99.90
56308;DHT22;42217;50.422;7.210;2023-08-20T00:17:54;18.80;99.90
56308;DHT22;42217;50.422;7.210;2023-08-20T00:20:21;18.90;99.90
56308;DHT22;42217;50.422;7.210;2023-08-20T00:22:47;19.00;99.90
56308;DHT22;42217;50.422;7.210;2023-08-20T00:25:15;19.20;99.90
56308;DHT22;42217;50.422;7.210;2023-08-20T00:27:41;19.30;99.90
56308;DHT22;42217;50.422;7.210;2023-08-20T00:30:07;19.30;99.90
56308;DHT22;42217;50.422;7.210;2023-08-20T00:32:34;19.30;99.90
56308;DHT22;42217;50.422;7.210;2023-08-20T00:34:59;19.20;99.90
56308;DHT22;42217;50.422;7.210;2023-08-20T00:37:25;19.00;99.90
56308;DHT22;42217;50.422;7.210;2023-08-20T00:39:51;18.90;99.90
56308;DHT22;42217;50.422;7.210;2023-08-20T00:42:17;18.90;99.90
56308;DHT22;42217;50.422;7.210;2023-08-20T00:44:43;18.90;99.90
56308;DHT22;42217;50.422;7.210;2023-08-20T00:47:13;18.70;99.90
56308;DHT22;42217;50.422;7.210;2023-08-20T00:49:39;18.60;99.90
56308;DHT22;42217;50.422;7.210;2023-08-20T00:52:09;18.70;99.90
56308;DHT22;42217;50.422;7.210;2023-08-20T00:54:35;18.70;99.90
56308;DHT22;42217;50.422;7.210;2023-08-20T00:57:02;18.60;99.90
56308;DHT22;42217;50.422;7.210;2023-08-20T00:59:30;18.40;99.90
56308;DHT22;42217;50.422;7.210;2023-08-20T01:01:57;18.40;99.90
56308;DHT22;42217;50.422;7.210;2023-08-20T01:04:23;18.40;99.90
56308;DHT22;42217;50.422;7.210;2023-08-20T01:07:21;18.50;99.90
56308;DHT22;42217;50.422;7.210;2023-08-20T01:12:39;18.20;99.90
56308;DHT22;42217;50.422;7.210;2023-08-20T01:15:05;18.10;99.90
56308;DHT22;42217;50.422;7.210;2023-08-20T01:17:31;18.10;99.90
56308;DHT22;42217;50.422;7.210;2023-08-20T01:19:56;18.20;99.90
56308;DHT22;42217;50.422;7.210;2023-08-20T01:25:46;18.30;99.90
56308;DHT22;42217;50.422;7.210;2023-08-20T01:28:20;18.20;99.90
56308;DHT22;42217;50.422;7.210;2023-08-20T01:30:46;18.30;99.90
56308;DHT22;42217;50.422;7.210;2023-08-20T01:33:13;18.30;99.90
56308;DHT22;42217;50.422;7.210;2023-08-20T01:35:40;18.40;99.90
56308;DHT22;42217;50.422;7.210;2023-08-20T01:38:06;18.40;99.90
56308;DHT22;42217;50.422;7.210;2023-08-20T01:40:31;18.50;99.90
56308;DHT22;42217;50.422;7.210;2023-08-20T01:42:57;18.50;99.90
56308;DHT22;42217;50.422;7.210;2023-08-20T01:45:23;18.50;99.90
56308;DHT22;42217;50.422;7.210;2023-08-20T01:47:49;18.40;99.90
56308;DHT22;42217;50.422;7.210;2023-08-20T01:50:15;18.30;99.90
56308;DHT22;42217;50.422;7.210;2023-08-20T01:52:40;18.20;99.90
56308;DHT22;42217;50.422;7.210;2023-08-20T01:55:06;18.00;99.90
56308;DHT22;42217;50.422;7.210;2023-08-20T01:57:32;17.90;99.90
56308;DHT22;42217;50.422;7.210;2023-08-20T01:59:58;17.90;99.90
56308;DHT22;42217;50.422;7.210;2023-08-20T02:02:24;17.80;99.90
56308;DHT22;42217;50.422;7.210;2023-08-20T02:04:50;17.60;99.90
56308;DHT22;42217;50.422;7.210;2023-08-20T02:07:16;17.50;99.90
56308;DHT22;42217;50.422;7.210;2023-08-20T02:09:42;17.40;99.90
56308;DHT22;42217;50.422;7.210;2023-08-20T02:12:08;17.30;99.90
56308;DHT22;42217;50.422;7.210;2023-08-20T02:14:34;17.20;99.90
56308;DHT22;42217;50.422;7.210;2023-08-20T02:17:04;17.10;99.90
56308;DHT22;42217;50.422;7.210;2023-08-20T02:19:29;17.20;99.90
56308;DHT22;42217;50.422;7.210;2023-08-20T02:21:55;17.60;99.90
56308;DHT22;42217;50.422;7.210;2023-08-20T02:24:21;18.00;99.90
56308;DHT22;42217;50.422;7.210;2023-08-20T02:26:47;18.00;99.90
56308;DHT22;42217;50.422;7.210;2023-08-20T02:29:12;18.10;99.90
56308;DHT22;42217;50.422;7.210;2023-08-20T02:31:38;18.10;99.90
56308;DHT22;42217;50.422;7.210;2023-08-20T02:34:04;18.10;99.90
56308;DHT22;42217;50.422;7.210;2023-08-20T02:36:30;18.10;99.90
56308;DHT22;42217;50.422;7.210;2023-08-20T02:38:55;18.10;99.90
56308;DHT22;42217;50.422;7.210;2023-08-20T02:41:21;18.00;99.90
56308;DHT22;42217;50.422;7.210;2023-08-20T02:43:47;17.80;99.90
56308;DHT22;42217;50.422;7.210;2023-08-20T02:46:13;17.70;99.90
56308;DHT22;42217;50.422;7.210;2023-08-20T02:48:39;17.70;99.90
56308;DHT22;42217;50.422;7.210;2023-08-20T02:51:04;17.90;99.90
56308;DHT22;42217;50.422;7.210;2023-08-20T02:53:30;17.90;99.90
56308;DHT22;42217;50.422;7.210;2023-08-20T02:55:56;17.70;99.90
56308;DHT22;42217;50.422;7.210;2023-08-20T02:58:22;17.60;99.90
56308;DHT22;42217;50.422;7.210;2023-08-20T03:00:48;17.60;99.90
56308;DHT22;42217;50.422;7.210;2023-08-20T03:03:13;17.80;99.90
56308;DHT22;42217;50.422;7.210;2023-08-20T03:05:39;18.00;99.90
56308;DHT22;42217;50.422;7.210;2023-08-20T03:08:05;18.10;99.90
56308;DHT22;42217;50.422;7.210;2023-08-20T03:10:32;18.20;99.90
56308;DHT22;42217;50.422;7.210;2023-08-20T03:13:01;18.20;99.90
56308;DHT22;42217;50.422;7.210;2023-08-20T03:15:28;18.20;99.90
56308;DHT22;42217;50.422;7.210;2023-08-20T03:17:53;18.30;99.90
56308;DHT22;42217;50.422;7.210;2023-08-20T03:20:19;18.30;99.90
56308;DHT22;42217;50.422;7.210;2023-08-20T03:22:45;18.30;99.90
56308;DHT22;42217;50.422;7.210;2023-08-20T03:25:11;18.30;99.90
56308;DHT22;42217;50.422;7.210;2023-08-20T03:27:36;18.30;99.90
56308;DHT22;42217;50.422;7.210;2023-08-20T03:30:03;18.30;99.90
56308;DHT22;42217;50.422;7.210;2023-08-20T03:32:29;18.20;99.90
56308;DHT22;42217;50.422;7.210;2023-08-20T03:34:55;18.20;99.90
56308;DHT22;42217;50.422;7.210;2023-08-20T03:37:21;18.10;99.90
56308;DHT22;42217;50.422;7.210;2023-08-20T03:39:48;18.00;99.90
56308;DHT22;42217;50.422;7.210;2023-08-20T03:42:13;17.80;99.90
56308;DHT22;42217;50.422;7.210;2023-08-20T03:44:39;17.70;99.90
56308;DHT22;42217;50.422;7.210;2023-08-20T03:47:05;17.70;99.90
56308;DHT22;42217;50.422;7.210;2023-08-20T03:49:31;17.60;99.90
56308;DHT22;42217;50.422;7.210;2023-08-20T03:51:56;17.60;99.90
56308;DHT22;42217;50.422;7.210;2023-08-20T03:54:22;17.70;99.90
56308;DHT22;42217;50.422;7.210;2023-08-20T03:56:48;17.70;99.90
56308;DHT22;42217;50.422;7.210;2023-08-20T03:59:15;17.90;99.90
56308;DHT22;42217;50.422;7.210;2023-08-20T04:01:40;18.00;99.90
56308;DHT22;42217;50.422;7.210;2023-08-20T04:04:06;18.00;99.90
56308;DHT22;42217;50.422;7.210;2023-08-20T04:06:31;17.80;99.90
56308;DHT22;42217;50.422;7.210;2023-08-20T04:08:57;17.60;99.90
56308;DHT22;42217;50.422;7.210;2023-08-20T04:11:23;17.40;99.90
56308;DHT22;42217;50.422;7.210;2023-08-20T04:13:48;17.40;99.90
56308;DHT22;42217;50.422;7.210;2023-08-20T04:16:14;17.40;99.90
56308;DHT22;42217;50.422;7.210;2023-08-20T04:18:40;17.50;99.90
56308;DHT22;42217;50.422;7.210;2023-08-20T04:21:06;17.50;99.90
56308;DHT22;42217;50.422;7.210;2023-08-20T04:23:32;17.30;99.90
56308;DHT22;42217;50.422;7.210;2023-08-20T04:25:58;17.20;99.90
56308;DHT22;42217;50.422;7.210;2023-08-20T04:28:24;17.20;99.90
56308;DHT22;42217;50.422;7.210;2023-08-20T04:30:52;17.10;99.90
56308;DHT22;42217;50.422;7.210;2023-08-20T04:33:20;17.10;99.90
56308;DHT22;42217;50.422;7.210;2023-08-20T04:35:46;17.20;99.90
56308;DHT22;42217;50.422;7.210;2023-08-20T04:38:11;17.30;99.90
56308;DHT22;42217;50.422;7.210;2023-08-20T04:40:37;17.30;99.90
56308;DHT22;42217;50.422;7.210;2023-08-20T04:43:03;17.30;99.90
56308;DHT22;42217;50.422;7.210;2023-08-20T04:45:28;17.30;99.90
56308;DHT22;42217;50.422;7.210;2023-08-20T04:47:54;17.30;99.90
56308;DHT22;42217;50.422;7.210;2023-08-20T04:50:20;17.30;99.90
56308;DHT22;42217;50.422;7.210;2023-08-20T04:52:46;17.30;99.90
56308;DHT22;42217;50.422;7.210;2023-08-20T04:55:11;17.30;99.90
56308;DHT22;42217;50.422;7.210;2023-08-20T04:57:37;17.30;99.90
56308;DHT22;42217;50.422;7.210;2023-08-20T05:00:03;17.40;99.90
56308;DHT22;42217;50.422;7.210;2023-08-20T05:02:29;17.50;99.90
56308;DHT22;42217;50.422;7.210;2023-08-20T05:04:55;17.60;99.90
56308;DHT22;42217;50.422;7.210;2023-08-20T05:07:20;17.60;99.90
56308;DHT22;42217;50.422;7.210;2023-08-20T05:09:46;17.60;99.90
56308;DHT22;42217;50.422;7.210;2023-08-20T05:12:12;17.50;99.90
56308;DHT22;42217;50.422;7.210;2023-08-20T05:14:37;17.50;99.90
56308;DHT22;42217;50.422;7.210;2023-08-20T05:17:03;17.60;99.90
56308;DHT22;42217;50.422;7.210;2023-08-20T05:19:29;17.70;99.90
56308;DHT22;42217;50.422;7.210;2023-08-20T05:21:54;17.90;99.90
56308;DHT22;42217;50.422;7.210;2023-08-20T05:24:24;18.00;99.90
56308;DHT22;42217;50.422;7.210;2023-08-20T05:27:13;18.20;99.90
56308;DHT22;42217;50.422;7.210;2023-08-20T05:29:45;18.30;99.90
56308;DHT22;42217;50.422;7.210;2023-08-20T05:32:11;18.30;99.90
56308;DHT22;42217;50.422;7.210;2023-08-20T05:34:37;18.30;99.90
56308;DHT22;42217;50.422;7.210;2023-08-20T05:37:02;18.30;99.90
56308;DHT22;42217;50.422;7.210;2023-08-20T05:39:30;18.30;99.90
56308;DHT22;42217;50.422;7.210;2023-08-20T05:41:56;18.40;99.90
56308;DHT22;42217;50.422;7.210;2023-08-20T05:44:22;18.50;99.90
56308;DHT22;42217;50.422;7.210;2023-08-20T05:46:48;18.50;99.90
56308;DHT22;42217;50.422;7.210;2023-08-20T05:49:14;18.50;99.90
56308;DHT22;42217;50.422;7.210;2023-08-20T05:51:44;18.60;99.90
56308;DHT22;42217;50.422;7.210;2023-08-20T05:54:11;18.70;99.90
56308;DHT22;42217;50.422;7.210;2023-08-20T05:56:37;18.60;99.90
56308;DHT22;42217;50.422;7.210;2023-08-20T05:59:03;18.70;99.90
56308;DHT22;42217;50.422;7.210;2023-08-20T06:01:29;18.80;99.90
56308;DHT22;42217;50.422;7.210;2023-08-20T06:03:55;18.90;99.90
56308;DHT22;42217;50.422;7.210;2023-08-20T06:06:21;19.10;99.90
56308;DHT22;42217;50.422;7.210;2023-08-20T06:08:47;19.30;99.90
56308;DHT22;42217;50.422;7.210;2023-08-20T06:11:13;19.60;99.90
56308;DHT22;42217;50.422;7.210;2023-08-20T06:13:39;19.80;99.90
56308;DHT22;42217;50.422;7.210;2023-08-20T06:16:06;20.10;99.90
56308;DHT22;42217;50.422;7.210;2023-08-20T06:18:32;20.30;99.90
56308;DHT22;42217;50.422;7.210;2023-08-20T06:20:57;20.50;99.90
56308;DHT22;42217;50.422;7.210;2023-08-20T06:23:23;20.80;99.90
56308;DHT22;42217;50.422;7.210;2023-08-20T06:25:50;21.00;99.90
56308;DHT22;42217;50.422;7.210;2023-08-20T06:28:16;21.30;99.90
56308;DHT22;42217;50.422;7.210;2023-08-20T06:30:42;21.50;99.90
56308;DHT22;42217;50.422;7.210;2023-08-20T06:33:08;21.40;99.90
56308;DHT22;42217;50.422;7.210;2023-08-20T06:35:34;21.30;99.90
56308;DHT22;42217;50.422;7.210;2023-08-20T06:37:59;21.20;99.90
56308;DHT22;42217;50.422;7.210;2023-08-20T06:40:25;21.00;99.90
56308;DHT22;42217;50.422;7.210;2023-08-20T06:42:51;20.80;99.90
56308;DHT22;42217;50.422;7.210;2023-08-20T06:45:16;20.80;99.90
56308;DHT22;42217;50.422;7.210;2023-08-20T06:47:42;20.90;99.90
56308;DHT22;42217;50.422;7.210;2023-08-20T06:50:08;21.10;99.90
56308;DHT22;42217;50.422;7.210;2023-08-20T06:52:34;21.30;99.90
56308;DHT22;42217;50.422;7.210;2023-08-20T06:54:59;21.40;99.90
56308;DHT22;42217;50.422;7.210;2023-08-20T06:57:25;21.50;99.90
56308;DHT22;42217;50.422;7.210;2023-08-20T06:59:51;21.70;99.90
56308;DHT22;42217;50.422;7.210;2023-08-20T07:02:16;21.80;99.90
56308;DHT22;42217;50.422;7.210;2023-08-20T07:04:42;21.80;99.90
56308;DHT22;42217;50.422;7.210;2023-08-20T07:07:08;22.00;99.90
56308;DHT22;42217;50.422;7.210;2023-08-20T07:09:34;22.10;99.90
56308;DHT22;42217;50.422;7.210;2023-08-20T07:12:01;22.20;99.90
56308;DHT22;42217;50.422;7.210;2023-08-20T07:14:28;22.20;99.90
56308;DHT22;42217;50.422;7.210;2023-08-20T07:16:54;22.30;99.90
56308;DHT22;42217;50.422;7.210;2023-08-20T07:19:19;22.30;99.90
56308;DHT22;42217;50.422;7.210;2023-08-20T07:21:45;22.30;99.90
56308;DHT22;42217;50.422;7.210;2023-08-20T07:24:11;22.50;99.90
56308;DHT22;42217;50.422;7.210;2023-08-20T07:26:36;22.60;99.90
56308;DHT22;42217;50.422;7.210;2023-08-20T07:29:02;22.70;99.90
56308;DHT22;42217;50.422;7.210;2023-08-20T07:31:32;22.70;99.90
56308;DHT22;42217;50.422;7.210;2023-08-20T07:34:00;22.80;99.90
56308;DHT22;42217;50.422;7.210;2023-08-20T07:36:27;22.90;99.90
56308;DHT22;42217;50.422;7.210;2023-08-20T07:38:53;23.00;99.90
56308;DHT22;42217;50.422;7.210;2023-08-20T07:41:19;23.00;99.90
56308;DHT22;42217;50.422;7.210;2023-08-20T07:43:46;23.00;99.90
56308;DHT22;42217;50.422;7.210;2023-08-20T07:46:12;23.20;99.90
56308;DHT22;42217;50.422;7.210;2023-08-20T07:48:38;23.20;99.90
56308;DHT22;42217;50.422;7.210;2023-08-20T07:51:04;23.30;99.90
56308;DHT22;42217;50.422;7.210;2023-08-20T07:53:30;23.40;99.90
56308;DHT22;42217;50.422;7.210;2023-08-20T07:55:56;23.60;99.90
56308;DHT22;42217;50.422;7.210;2023-08-20T07:58:22;23.70;99.90
56308;DHT22;42217;50.422;7.210;2023-08-20T08:00:48;23.60;99.90
56308;DHT22;42217;50.422;7.210;2023-08-20T08:03:13;23.60;99.90
56308;DHT22;42217;50.422;7.210;2023-08-20T08:05:49;23.80;99.90
56308;DHT22;42217;50.422;7.210;2023-08-20T08:08:16;23.80;99.90
56308;DHT22;42217;50.422;7.210;2023-08-20T08:10:42;23.90;99.90
56308;DHT22;42217;50.422;7.210;2023-08-20T08:13:10;24.00;99.90
56308;DHT22;42217;50.422;7.210;2023-08-20T08:15:36;24.20;99.90
56308;DHT22;42217;50.422;7.210;2023-08-20T08:18:02;24.20;99.90
56308;DHT22;42217;50.422;7.210;2023-08-20T08:20:29;24.30;99.90
56308;DHT22;42217;50.422;7.210;2023-08-20T08:22:54;24.30;99.90
56308;DHT22;42217;50.422;7.210;2023-08-20T08:25:20;24.40;99.90
56308;DHT22;42217;50.422;7.210;2023-08-20T08:27:45;24.50;99.90
56308;DHT22;42217;50.422;7.210;2023-08-20T08:30:11;24.60;99.90
56308;DHT22;42217;50.422;7.210;2023-08-20T08:32:37;24.80;99.90
56308;DHT22;42217;50.422;7.210;2023-08-20T08:35:03;25.00;99.90
56308;DHT22;42217;50.422;7.210;2023-08-20T08:37:29;25.00;99.90
56308;DHT22;42217;50.422;7.210;2023-08-20T08:39:54;24.90;99.90
56308;DHT22;42217;50.422;7.210;2023-08-20T08:42:22;25.00;99.90
56308;DHT22;42217;50.422;7.210;2023-08-20T08:44:49;25.00;99.90
56308;DHT22;42217;50.422;7.210;2023-08-20T08:47:16;25.00;99.90
56308;DHT22;42217;50.422;7.210;2023-08-20T08:49:42;25.10;99.90
56308;DHT22;42217;50.422;7.210;2023-08-20T08:52:10;25.10;99.90
56308;DHT22;42217;50.422;7.210;2023-08-20T08:54:36;25.10;99.90
56308;DHT22;42217;50.422;7.210;2023-08-20T08:57:02;24.90;99.90
56308;DHT22;42217;50.422;7.210;2023-08-20T08:59:28;24.90;99.90
56308;DHT22;42217;50.422;7.210;2023-08-20T09:01:54;25.20;99.90
56308;DHT22;42217;50.422;7.210;2023-08-20T09:04:22;25.40;99.90
56308;DHT22;42217;50.422;7.210;2023-08-20T09:06:52;25.60;99.90
56308;DHT22;42217;50.422;7.210;2023-08-20T09:09:20;25.60;99.90
56308;DHT22;42217;50.422;7.210;2023-08-20T09:11:46;25.50;99.90
56308;DHT22;42217;50.422;7.210;2023-08-20T09:14:28;25.60;99.90
56308;DHT22;42217;50.422;7.210;2023-08-20T09:17:01;25.50;99.90
56308;DHT22;42217;50.422;7.210;2023-08-20T09:19:35;25.60;99.90
56308;DHT22;42217;50.422;7.210;2023-08-20T09:22:04;25.50;99.90
56308;DHT22;42217;50.422;7.210;2023-08-20T09:24:47;25.50;99.90
56308;DHT22;42217;50.422;7.210;2023-08-20T09:27:13;25.50;99.90
56308;DHT22;42217;50.422;7.210;2023-08-20T09:29:53;25.50;99.90
56308;DHT22;42217;50.422;7.210;2023-08-20T09:32:21;25.50;99.90
56308;DHT22;42217;50.422;7.210;2023-08-20T09:34:51;25.60;99.90
56308;DHT22;42217;50.422;7.210;2023-08-20T09:37:18;25.70;99.90
56308;DHT22;42217;50.422;7.210;2023-08-20T09:39:45;25.50;99.90
56308;DHT22;42217;50.422;7.210;2023-08-20T09:42:12;25.50;99.90
56308;DHT22;42217;50.422;7.210;2023-08-20T09:44:40;25.60;99.90
56308;DHT22;42217;50.422;7.210;2023-08-20T09:47:11;25.50;99.90
56308;DHT22;42217;50.422;7.210;2023-08-20T09:49:45;25.50;99.90
56308;DHT22;42217;50.422;7.210;2023-08-20T09:52:25;25.60;99.90
56308;DHT22;42217;50.422;7.210;2023-08-20T09:55:06;25.80;99.90
56308;DHT22;42217;50.422;7.210;2023-08-20T09:57:37;26.10;99.90
56308;DHT22;42217;50.422;7.210;2023-08-20T10:00:08;26.40;99.90
56308;DHT22;42217;50.422;7.210;2023-08-20T10:02:35;26.30;99.90
56308;DHT22;42217;50.422;7.210;2023-08-20T10:05:04;26.20;99.90
56308;DHT22;42217;50.422;7.210;2023-08-20T10:07:31;26.20;99.90
56308;DHT22;42217;50.422;7.210;2023-08-20T10:09:58;26.10;99.90
56308;DHT22;42217;50.422;7.210;2023-08-20T10:12:27;26.10;99.90
56308;DHT22;42217;50.422;7.210;2023-08-20T10:14:54;26.10;99.90
56308;DHT22;42217;50.422;7.210;2023-08-20T10:17:22;26.30;99.90
56308;DHT22;42217;50.422;7.210;2023-08-20T10:19:48;26.50;99.90
56308;DHT22;42217;50.422;7.210;2023-08-20T10:22:14;26.70;99.90
56308;DHT22;42217;50.422;7.210;2023-08-20T10:25:00;26.70;99.90
56308;DHT22;42217;50.422;7.210;2023-08-20T10:27:32;26.80;99.90
56308;DHT22;42217;50.422;7.210;2023-08-20T10:29:59;26.80;99.90
56308;DHT22;42217;50.422;7.210;2023-08-20T10:32:45;26.80;99.90
56308;DHT22;42217;50.422;7.210;2023-08-20T10:38:04;26.90;99.90
56308;DHT22;42217;50.422;7.210;2023-08-20T10:43:36;26.70;99.90
56308;DHT22;42217;50.422;7.210;2023-08-20T10:46:19;26.70;99.90
56308;DHT22;42217;50.422;7.210;2023-08-20T10:51:16;26.90;99.90
56308;DHT22;42217;50.422;7.210;2023-08-20T10:53:48;26.80;99.90
56308;DHT22;42217;50.422;7.210;2023-08-20T10:56:16;26.90;99.90
56308;DHT22;42217;50.422;7.210;2023-08-20T10:58:44;26.80;99.90
56308;DHT22;42217;50.422;7.210;2023-08-20T11:01:21;26.80;99.90
56308;DHT22;42217;50.422;7.210;2023-08-20T11:03:50;26.80;99.90
56308;DHT22;42217;50.422;7.210;2023-08-20T11:06:18;26.80;99.90
56308;DHT22;42217;50.422;7.210;2023-08-20T11:08:53;26.90;99.90
56308;DHT22;42217;50.422;7.210;2023-08-20T11:11:19;27.00;99.90
56308;DHT22;42217;50.422;7.210;2023-08-20T11:13:44;27.00;99.90
56308;DHT22;42217;50.422;7.210;2023-08-20T11:16:10;27.00;99.90
56308;DHT22;42217;50.422;7.210;2023-08-20T11:18:36;27.10;99.90
56308;DHT22;42217;50.422;7.210;2023-08-20T11:21:02;27.10;99.90
56308;DHT22;42217;50.422;7.210;2023-08-20T11:23:28;27.10;99.90
56308;DHT22;42217;50.422;7.210;2023-08-20T11:25:56;27.20;99.90
56308;DHT22;42217;50.422;7.210;2023-08-20T11:28:28;27.30;99.90
56308;DHT22;42217;50.422;7.210;2023-08-20T11:30:54;27.60;99.90
56308;DHT22;42217;50.422;7.210;2023-08-20T11:33:21;27.50;99.90
56308;DHT22;42217;50.422;7.210;2023-08-20T11:35:48;27.70;99.90
56308;DHT22;42217;50.422;7.210;2023-08-20T11:38:14;27.90;99.90
56308;DHT22;42217;50.422;7.210;2023-08-20T11:40:40;28.00;99.90
56308;DHT22;42217;50.422;7.210;2023-08-20T11:43:06;28.10;99.90
56308;DHT22;42217;50.422;7.210;2023-08-20T11:45:32;28.30;99.90
56308;DHT22;42217;50.422;7.210;2023-08-20T11:47:58;28.70;99.90
56308;DHT22;42217;50.422;7.210;2023-08-20T11:50:24;29.20;99.90
56308;DHT22;42217;50.422;7.210;2023-08-20T11:52:52;29.10;99.90
56308;DHT22;42217;50.422;7.210;2023-08-20T11:55:24;29.00;99.90
56308;DHT22;42217;50.422;7.210;2023-08-20T11:57:53;28.90;99.90
56308;DHT22;42217;50.422;7.210;2023-08-20T12:00:30;29.00;99.90
56308;DHT22;42217;50.422;7.210;2023-08-20T12:02:57;28.80;99.90
56308;DHT22;42217;50.422;7.210;2023-08-20T12:05:29;28.60;99.90
56308;DHT22;42217;50.422;7.210;2023-08-20T12:08:01;28.60;99.90
56308;DHT22;42217;50.422;7.210;2023-08-20T12:10:28;28.70;99.90
56308;DHT22;42217;50.422;7.210;2023-08-20T12:12:55;28.70;99.90
56308;DHT22;42217;50.422;7.210;2023-08-20T12:15:22;28.90;99.90
56308;DHT22;42217;50.422;7.210;2023-08-20T12:18:04;29.50;99.90
56308;DHT22;42217;50.422;7.210;2023-08-20T12:20:35;29.90;99.90
56308;DHT22;42217;50.422;7.210;2023-08-20T12:23:02;30.20;99.90
56308;DHT22;42217;50.422;7.210;2023-08-20T12:25:33;30.10;99.90
56308;DHT22;42217;50.422;7.210;2023-08-20T12:28:00;30.10;99.90
56308;DHT22;42217;50.422;7.210;2023-08-20T12:30:26;30.60;99.90
56308;DHT22;42217;50.422;7.210;2023-08-20T12:32:52;30.60;99.90
56308;DHT22;42217;50.422;7.210;2023-08-20T12:35:18;30.50;99.90
56308;DHT22;42217;50.422;7.210;2023-08-20T12:37:43;30.00;99.90
56308;DHT22;42217;50.422;7.210;2023-08-20T12:40:10;29.40;99.90
56308;DHT22;42217;50.422;7.210;2023-08-20T12:42:38;29.00;99.90
56308;DHT22;42217;50.422;7.210;2023-08-20T12:45:05;28.90;99.90
56308;DHT22;42217;50.422;7.210;2023-08-20T12:47:32;28.80;99.90
56308;DHT22;42217;50.422;7.210;2023-08-20T12:49:57;28.60;99.90
56308;DHT22;42217;50.422;7.210;2023-08-20T12:52:23;28.40;99.90
56308;DHT22;42217;50.422;7.210;2023-08-20T12:54:49;28.30;99.90
56308;DHT22;42217;50.422;7.210;2023-08-20T12:57:15;28.50;99.90
56308;DHT22;42217;50.422;7.210;2023-08-20T12:59:40;28.50;99.90
56308;DHT22;42217;50.422;7.210;2023-08-20T13:02:06;28.50;99.90
56308;DHT22;42217;50.422;7.210;2023-08-20T13:04:32;28.80;99.90
56308;DHT22;42217;50.422;7.210;2023-08-20T13:06:58;29.20;99.90
56308;DHT22;42217;50.422;7.210;2023-08-20T13:09:24;30.10;99.90
56308;DHT22;42217;50.422;7.210;2023-08-20T13:11:51;30.30;99.90
56308;DHT22;42217;50.422;7.210;2023-08-20T13:14:19;30.60;99.90
56308;DHT22;42217;50.422;7.210;2023-08-20T13:16:44;30.90;99.90
56308;DHT22;42217;50.422;7.210;2023-08-20T13:19:10;31.40;99.90
56308;DHT22;42217;50.422;7.210;2023-08-20T13:21:36;31.50;99.90
56308;DHT22;42217;50.422;7.210;2023-08-20T13:24:02;31.40;99.90
56308;DHT22;42217;50.422;7.210;2023-08-20T13:26:28;31.40;99.90
56308;DHT22;42217;50.422;7.210;2023-08-20T13:28:53;32.30;99.90
56308;DHT22;42217;50.422;7.210;2023-08-20T13:31:19;32.60;99.20
56308;DHT22;42217;50.422;7.210;2023-08-20T13:33:45;32.70;99.40
56308;DHT22;42217;50.422;7.210;2023-08-20T13:36:10;33.00;99.90
56308;DHT22;42217;50.422;7.210;2023-08-20T13:38:36;34.00;98.60
56308;DHT22;42217;50.422;7.210;2023-08-20T13:41:01;35.10;97.40
56308;DHT22;42217;50.422;7.210;2023-08-20T13:43:27;36.20;92.60
56308;DHT22;42217;50.422;7.210;2023-08-20T13:45:53;37.50;90.30
56308;DHT22;42217;50.422;7.210;2023-08-20T13:48:18;37.40;84.60
56308;DHT22;42217;50.422;7.210;2023-08-20T13:50:44;36.70;86.20
56308;DHT22;42217;50.422;7.210;2023-08-20T13:53:10;36.00;86.50
56308;DHT22;42217;50.422;7.210;2023-08-20T13:55:35;35.40;88.80
56308;DHT22;42217;50.422;7.210;2023-08-20T13:58:01;34.50;88.60
56308;DHT22;42217;50.422;7.210;2023-08-20T14:00:27;33.90;90.70
56308;DHT22;42217;50.422;7.210;2023-08-20T14:02:53;34.40;91.90
56308;DHT22;42217;50.422;7.210;2023-08-20T14:05:18;35.20;90.40
56308;DHT22;42217;50.422;7.210;2023-08-20T14:07:45;36.30;89.00
56308;DHT22;42217;50.422;7.210;2023-08-20T14:10:11;36.90;87.90
56308;DHT22;42217;50.422;7.210;2023-08-20T14:12:37;37.20;84.10
56308;DHT22;42217;50.422;7.210;2023-08-20T14:15:03;37.30;82.30
56308;DHT22;42217;50.422;7.210;2023-08-20T14:17:29;37.80;81.00
56308;DHT22;42217;50.422;7.210;2023-08-20T14:19:56;37.80;80.50
56308;DHT22;42217;50.422;7.210;2023-08-20T14:22:21;38.40;78.50
56308;DHT22;42217;50.422;7.210;2023-08-20T14:24:47;37.90;78.90
56308;DHT22;42217;50.422;7.210;2023-08-20T14:27:13;38.30;77.70
56308;DHT22;42217;50.422;7.210;2023-08-20T14:29:40;38.20;78.30
56308;DHT22;42217;50.422;7.210;2023-08-20T14:32:05;38.00;76.90
56308;DHT22;42217;50.422;7.210;2023-08-20T14:34:31;37.80;75.80
56308;DHT22;42217;50.422;7.210;2023-08-20T14:36:57;37.90;77.60
56308;DHT22;42217;50.422;7.210;2023-08-20T14:39:22;38.20;75.80
56308;DHT22;42217;50.422;7.210;2023-08-20T14:41:49;37.90;74.60
56308;DHT22;42217;50.422;7.210;2023-08-20T14:44:14;36.20;76.90
56308;DHT22;42217;50.422;7.210;2023-08-20T14:46:40;34.20;80.70
56308;DHT22;42217;50.422;7.210;2023-08-20T14:49:05;33.20;85.10
56308;DHT22;42217;50.422;7.210;2023-08-20T14:51:31;33.90;87.00
56308;DHT22;42217;50.422;7.210;2023-08-20T14:53:57;34.80;83.90
56308;DHT22;42217;50.422;7.210;2023-08-20T14:56:22;35.70;81.50
56308;DHT22;42217;50.422;7.210;2023-08-20T14:58:49;36.20;80.40
56308;DHT22;42217;50.422;7.210;2023-08-20T15:01:15;36.10;81.50
56308;DHT22;42217;50.422;7.210;2023-08-20T15:03:40;36.30;79.40
56308;DHT22;42217;50.422;7.210;2023-08-20T15:06:06;36.20;79.80
56308;DHT22;42217;50.422;7.210;2023-08-20T15:08:31;36.70;79.10
56308;DHT22;42217;50.422;7.210;2023-08-20T15:10:58;37.20;79.40
56308;DHT22;42217;50.422;7.210;2023-08-20T15:13:27;37.70;76.80
56308;DHT22;42217;50.422;7.210;2023-08-20T15:15:53;39.00;74.10
56308;DHT22;42217;50.422;7.210;2023-08-20T15:18:20;39.70;73.80
56308;DHT22;42217;50.422;7.210;2023-08-20T15:20:52;40.30;70.70
56308;DHT22;42217;50.422;7.210;2023-08-20T15:23:18;40.50;69.50
56308;DHT22;42217;50.422;7.210;2023-08-20T15:25:47;38.50;70.50
56308;DHT22;42217;50.422;7.210;2023-08-20T15:28:13;35.80;74.20
56308;DHT22;42217;50.422;7.210;2023-08-20T15:30:38;33.30;80.30
56308;DHT22;42217;50.422;7.210;2023-08-20T15:33:04;31.90;85.70
56308;DHT22;42217;50.422;7.210;2023-08-20T15:35:30;32.70;85.30
56308;DHT22;42217;50.422;7.210;2023-08-20T15:37:56;32.50;85.10
56308;DHT22;42217;50.422;7.210;2023-08-20T15:40:21;31.90;87.80
56308;DHT22;42217;50.422;7.210;2023-08-20T15:42:47;32.80;88.60